Suhaja, Russia
Current Conditions -  °F | °C
As of 12:30 AM on Friday 31 Oct 2014 (Local Time) from UIUU Reporting Station
Clear Clear  
Wind Chill: 10°   Ceiling: Unl
Heat Index: 10°   Visibility: 6mi
Dew Point:   Wind: 2mph
Humidity: 79%   Direction: 250°WSW
Pressure: 30.06"   Gusts: NA
Location:  52.57°N, 107.13°E
Report Text: UIUU 301630Z 25001MPS 9999 SKC M12/M15 Q1018 NOSIG RMKQFE719/0959 26CLRD60
Loading
Personal Weather Stations






























Interactive Weather Map
Tropical Storm Tracking
New forecast layout! Learn more

10-Day Weather Forecast

Advertisements
Track Severe Weather on mobile